Kaldármelar Airport

Jump to: basic info | weather | comments

Related pages: nearby airports | nearby navaids | notams | map

Basic information (top)

Codes: BIKA
Location: lon 64.778900, lat -22.256901, elev 160 ft / 49 m msl
Status: small_airport

Weather (top)

Current conditions for Reykjavik Airport 40nm (74km) SSE (rec'd 2014/04/16 22:00Z):

BIRK 162200Z 36013KT 9999 FEW032 01/M04 Q1004

Airport forecast for Reykjavik Airport 40nm (74km) SSE (rec'd 2014/04/16 21:00Z):

TAF BIRK 161958Z 1621/1721 04008KT CAVOK 
      BECMG 1705/1708 12012KT 9999 BKN040 
      BECMG 1712/1715 16018G28KT 4000 SN BKN013 OVC025 
      BECMG 1715/1718 16032G42KT 8000 RA

Latest comments (top)

No comments yet for Kaldármelar Airport

More... (top)

See also NOTAMs and nearby airports and navaids, or visit the Kaldármelar Airport page at the main OurAirports website..